Nissho Maru No7 — JH3472 — position and weather

sailwx.info

Track history (hours):
 
Tides and Currents Weather Stations Pressure Air Temp Water Temp Dewpoint Dewpoint Depression Visibility Wind Speed Wind Dir Waves Ship Positions

Nissho Maru No7

Last reported at 2014-Oct-02 04:23 UTC. Time now 2014-Oct-02 06:35 UTC.
Position N 35°36' E 139°50'.

Length 71 m.

MMSI: 431200355.

Date/timePositionNaut miles runAvg speedWind from/ knotsBaromVisibWave heightAir tempDewpointWater temp
2014-Oct-02 04:23N 35°36' E 139°50'5 6.6
2014-Oct-02 03:33N 35°31' E 139°51'0 0.0
2014-Oct-02 02:33N 35°31' E 139°51'0 0.0
2014-Oct-02 01:34N 35°31' E 139°51'0 0.0
2014-Oct-02 00:33N 35°31' E 139°51'0 0.0
2014-Oct-01 23:33N 35°31' E 139°51'0 0.0
2014-Oct-01 22:34N 35°31' E 139°51'0 0.0
2014-Oct-01 21:34N 35°31' E 139°51'0 0.0
2014-Oct-01 20:32N 35°31' E 139°51'0 0.0
2014-Oct-01 19:33N 35°31' E 139°51'0 0.0
2014-Oct-01 18:32N 35°31' E 139°51'0 0.0
2014-Oct-01 17:34N 35°31' E 139°51'0 0.0
2014-Oct-01 16:33N 35°31' E 139°51'0 0.0
2014-Oct-01 15:33N 35°31' E 139°51'0 0.0
2014-Oct-01 14:06N 35°31' E 139°51'0 0.0
2014-Oct-01 13:08N 35°31' E 139°51'0 0.0
2014-Oct-01 12:33N 35°31' E 139°51'0 0.0
2014-Oct-01 11:33N 35°31' E 139°51'0 0.0
2014-Oct-01 10:33N 35°31' E 139°51'0 0.0
2014-Oct-01 09:33N 35°31' E 139°51'0 0.0
2014-Oct-01 08:33N 35°31' E 139°51'2 1.9
2014-Oct-01 07:33N 35°29' E 139°52'1010.2
2014-Oct-01 06:33N 35°21' E 139°45'247 9.0
2014-Sep-30 03:15N 34°03' E 135°00'811.0
2014-Sep-30 02:33N 34°10' E 134°59'10 9.6
2014-Sep-30 01:32N 34°20' E 134°60'1010.4
2014-Sep-30 00:33N 34°27' E 135°09'1111.1
2014-Sep-29 23:33N 34°32' E 135°21'3 0.2
2014-Sep-29 11:31N 34°31' E 135°24'0 0.0
2014-Sep-29 00:19N 34°31' E 135°24'0 0.0
2014-Sep-27 23:31N 34°31' E 135°24'0 0.0
2014-Sep-27 22:31N 34°31' E 135°24'0 0.0
2014-Sep-27 03:07N 34°31' E 135°24'0 0.0
2014-Sep-27 02:18N 34°31' E 135°24'3 4.4
2014-Sep-27 01:33N 34°34' E 135°23'4 3.2
2014-Sep-27 00:26N 34°35' E 135°27'0 0.0
2014-Sep-26 23:32N 34°35' E 135°27'0 0.0
2014-Sep-26 22:26N 34°35' E 135°27'0 0.0
2014-Sep-26 21:22N 34°35' E 135°27'0 0.0
2014-Sep-26 20:28N 34°35' E 135°27'0 0.0
2014-Sep-26 19:28N 34°35' E 135°27'0 0.0
2014-Sep-26 18:28N 34°35' E 135°27'0 0.0
2014-Sep-26 17:28N 34°35' E 135°27'0 0.0
2014-Sep-26 16:10N 34°35' E 135°27'0 0.0
2014-Sep-26 15:28N 34°35' E 135°27'0 0.0
2014-Sep-26 14:28N 34°35' E 135°27'0 0.0
2014-Sep-26 13:28N 34°35' E 135°27'0 0.0
2014-Sep-26 12:16N 34°35' E 135°27'0 0.0
2014-Sep-26 11:28N 34°35' E 135°27'0 0.0
2014-Sep-26 10:28N 34°35' E 135°27'0 0.0
2014-Sep-26 09:28N 34°35' E 135°27'0 0.0
2014-Sep-26 08:30N 34°35' E 135°27'0 0.0
2014-Sep-26 07:30N 34°35' E 135°27'0 0.0
2014-Sep-26 06:30N 34°35' E 135°27'0 0.0
2014-Sep-26 05:30N 34°35' E 135°27'0 0.0
2014-Sep-26 04:24N 34°35' E 135°27'0 0.0
2014-Sep-26 03:30N 34°35' E 135°27'0 0.1
2014-Sep-26 02:28N 34°35' E 135°27'0 0.2
2014-Sep-26 01:16N 34°35' E 135°27'0 0.0
2014-Sep-26 00:28N 34°35' E 135°27'0 0.0
2014-Sep-25 23:25N 34°35' E 135°27'0 0.0
2014-Sep-25 22:31N 34°35' E 135°27'0 0.0
2014-Sep-25 21:31N 34°35' E 135°27'0 0.1
2014-Sep-25 20:07N 34°35' E 135°27'0 0.5
2014-Sep-25 19:31N 34°35' E 135°27'1 0.1
2014-Sep-25 09:33N 34°35' E 135°26'8 7.7
2014-Sep-25 08:31N 34°32' E 135°17'1310.1
2014-Sep-25 07:12N 34°22' E 135°07'7 9.7
2014-Sep-25 06:30N 34°16' E 135°03'4 3.9
2014-Sep-25 05:33N 34°15' E 135°07'0 0.0
2014-Sep-25 04:32N 34°15' E 135°07'0 0.0
2014-Sep-25 03:32N 34°15' E 135°07'0 0.0
2014-Sep-25 02:32N 34°15' E 135°07'0 0.0
2014-Sep-25 01:32N 34°15' E 135°07'0 0.0
2014-Sep-25 00:29N 34°15' E 135°07'0 0.0
2014-Sep-24 23:32N 34°15' E 135°07'0 0.0
2014-Sep-24 22:32N 34°15' E 135°07'0 0.0
2014-Sep-24 21:32N 34°15' E 135°07'0 0.0
2014-Sep-24 20:32N 34°15' E 135°07'0 0.0
2014-Sep-24 19:32N 34°15' E 135°07'0 0.0
2014-Sep-24 18:32N 34°15' E 135°07'0 0.0
2014-Sep-24 17:32N 34°15' E 135°07'0 0.0
2014-Sep-24 16:32N 34°15' E 135°07'0 0.0
2014-Sep-24 15:32N 34°15' E 135°07'0 0.0
2014-Sep-24 14:32N 34°15' E 135°07'0 0.0
2014-Sep-24 13:32N 34°15' E 135°07'0 0.0
2014-Sep-24 12:32N 34°15' E 135°07'0 0.0
2014-Sep-24 11:32N 34°15' E 135°07'0 0.0
2014-Sep-24 10:32N 34°15' E 135°07'0 0.0
2014-Sep-24 09:32N 34°15' E 135°07'0 0.1
2014-Sep-24 08:29N 34°15' E 135°07'0 0.1
2014-Sep-24 07:34N 34°15' E 135°07'7 6.4
2014-Sep-24 06:31N 34°16' E 134°59'1010.2
2014-Sep-24 05:34N 34°25' E 135°04'1211.8
2014-Sep-24 04:34N 34°32' E 135°16'9 8.8
2014-Sep-24 03:32N 34°35' E 135°26'1 1.3
2014-Sep-24 02:33N 34°34' E 135°27'0 0.0
2014-Sep-24 01:32N 34°34' E 135°27'0 0.0
2014-Sep-24 00:32N 34°34' E 135°27'0 0.0
2014-Sep-23 23:33N 34°34' E 135°27'0 0.0
2014-Sep-23 22:33N 34°34' E 135°27'0 0.0
2014-Sep-23 21:32N 34°34' E 135°27'0 0.0
2014-Sep-23 20:31N 34°34' E 135°27'0 0.0
2014-Sep-23 18:06N 34°34' E 135°27'0 0.0
2014-Sep-23 17:32N 34°34' E 135°27'0 0.0
2014-Sep-23 16:33N 34°34' E 135°27'0 0.0
2014-Sep-23 15:33N 34°34' E 135°27'0 0.0
2014-Sep-23 14:33N 34°34' E 135°27'0 0.0
2014-Sep-23 13:33N 34°34' E 135°27'0 0.0
2014-Sep-23 12:32N 34°34' E 135°27'0 0.0
2014-Sep-23 11:34N 34°34' E 135°27'0 0.0
2014-Sep-23 10:33N 34°34' E 135°27'0 0.0
2014-Sep-23 09:33N 34°34' E 135°27'0 0.0
2014-Sep-23 06:33N 34°34' E 135°27'4 3.6
2014-Sep-23 05:33N 34°36' E 135°23'5 5.2
2014-Sep-23 04:33N 34°42' E 135°24'0 0.0
2014-Sep-23 01:30N 34°42' E 135°24'0 0.0
2014-Sep-23 00:30N 34°42' E 135°24'0 0.0
2014-Sep-22 07:24N 34°42' E 135°24'  
Track history (hours):
 
Tides and Currents Weather Stations Pressure Air Temp Water Temp Dewpoint Dewpoint Depression Visibility Wind Speed Wind Dir Waves Ship Positions

Nissho Maru No7

Last reported at 2014-Oct-02 04:23 UTC. Time now 2014-Oct-02 06:35 UTC.
Position N 35°36' E 139°50'.

Length 71 m.

MMSI: 431200355.

Date/timePositionNaut miles runAvg speedWind from/ knotsBaromVisibWave heightAir tempDewpointWater temp
2014-Oct-02 04:23N 35°36' E 139°50'5 6.6
2014-Oct-02 03:33N 35°31' E 139°51'0 0.0
2014-Oct-02 02:33N 35°31' E 139°51'0 0.0
2014-Oct-02 01:34N 35°31' E 139°51'0 0.0
2014-Oct-02 00:33N 35°31' E 139°51'0 0.0
2014-Oct-01 23:33N 35°31' E 139°51'0 0.0
2014-Oct-01 22:34N 35°31' E 139°51'0 0.0
2014-Oct-01 21:34N 35°31' E 139°51'0 0.0
2014-Oct-01 20:32N 35°31' E 139°51'0 0.0
2014-Oct-01 19:33N 35°31' E 139°51'0 0.0
2014-Oct-01 18:32N 35°31' E 139°51'0 0.0
2014-Oct-01 17:34N 35°31' E 139°51'0 0.0
2014-Oct-01 16:33N 35°31' E 139°51'0 0.0
2014-Oct-01 15:33N 35°31' E 139°51'0 0.0
2014-Oct-01 14:06N 35°31' E 139°51'0 0.0
2014-Oct-01 13:08N 35°31' E 139°51'0 0.0
2014-Oct-01 12:33N 35°31' E 139°51'0 0.0
2014-Oct-01 11:33N 35°31' E 139°51'0 0.0
2014-Oct-01 10:33N 35°31' E 139°51'0 0.0
2014-Oct-01 09:33N 35°31' E 139°51'0 0.0
2014-Oct-01 08:33N 35°31' E 139°51'2 1.9
2014-Oct-01 07:33N 35°29' E 139°52'1010.2
2014-Oct-01 06:33N 35°21' E 139°45'247 9.0
2014-Sep-30 03:15N 34°03' E 135°00'811.0
2014-Sep-30 02:33N 34°10' E 134°59'10 9.6
2014-Sep-30 01:32N 34°20' E 134°60'1010.4
2014-Sep-30 00:33N 34°27' E 135°09'1111.1
2014-Sep-29 23:33N 34°32' E 135°21'3 0.2
2014-Sep-29 11:31N 34°31' E 135°24'0 0.0
2014-Sep-29 00:19N 34°31' E 135°24'0 0.0
2014-Sep-27 23:31N 34°31' E 135°24'0 0.0
2014-Sep-27 22:31N 34°31' E 135°24'0 0.0
2014-Sep-27 03:07N 34°31' E 135°24'0 0.0
2014-Sep-27 02:18N 34°31' E 135°24'3 4.4
2014-Sep-27 01:33N 34°34' E 135°23'4 3.2
2014-Sep-27 00:26N 34°35' E 135°27'0 0.0
2014-Sep-26 23:32N 34°35' E 135°27'0 0.0
2014-Sep-26 22:26N 34°35' E 135°27'0 0.0
2014-Sep-26 21:22N 34°35' E 135°27'0 0.0
2014-Sep-26 20:28N 34°35' E 135°27'0 0.0
2014-Sep-26 19:28N 34°35' E 135°27'0 0.0
2014-Sep-26 18:28N 34°35' E 135°27'0 0.0
2014-Sep-26 17:28N 34°35' E 135°27'0 0.0
2014-Sep-26 16:10N 34°35' E 135°27'0 0.0
2014-Sep-26 15:28N 34°35' E 135°27'0 0.0
2014-Sep-26 14:28N 34°35' E 135°27'0 0.0
2014-Sep-26 13:28N 34°35' E 135°27'0 0.0
2014-Sep-26 12:16N 34°35' E 135°27'0 0.0
2014-Sep-26 11:28N 34°35' E 135°27'0 0.0
2014-Sep-26 10:28N 34°35' E 135°27'0 0.0
2014-Sep-26 09:28N 34°35' E 135°27'0 0.0
2014-Sep-26 08:30N 34°35' E 135°27'0 0.0
2014-Sep-26 07:30N 34°35' E 135°27'0 0.0
2014-Sep-26 06:30N 34°35' E 135°27'0 0.0
2014-Sep-26 05:30N 34°35' E 135°27'0 0.0
2014-Sep-26 04:24N 34°35' E 135°27'0 0.0
2014-Sep-26 03:30N 34°35' E 135°27'0 0.1
2014-Sep-26 02:28N 34°35' E 135°27'0 0.2
2014-Sep-26 01:16N 34°35' E 135°27'0 0.0
2014-Sep-26 00:28N 34°35' E 135°27'0 0.0
2014-Sep-25 23:25N 34°35' E 135°27'0 0.0
2014-Sep-25 22:31N 34°35' E 135°27'0 0.0
2014-Sep-25 21:31N 34°35' E 135°27'0 0.1
2014-Sep-25 20:07N 34°35' E 135°27'0 0.5
2014-Sep-25 19:31N 34°35' E 135°27'1 0.1
2014-Sep-25 09:33N 34°35' E 135°26'8 7.7
2014-Sep-25 08:31N 34°32' E 135°17'1310.1
2014-Sep-25 07:12N 34°22' E 135°07'7 9.7
2014-Sep-25 06:30N 34°16' E 135°03'4 3.9
2014-Sep-25 05:33N 34°15' E 135°07'0 0.0
2014-Sep-25 04:32N 34°15' E 135°07'0 0.0
2014-Sep-25 03:32N 34°15' E 135°07'0 0.0
2014-Sep-25 02:32N 34°15' E 135°07'0 0.0
2014-Sep-25 01:32N 34°15' E 135°07'0 0.0
2014-Sep-25 00:29N 34°15' E 135°07'0 0.0
2014-Sep-24 23:32N 34°15' E 135°07'0 0.0
2014-Sep-24 22:32N 34°15' E 135°07'0 0.0
2014-Sep-24 21:32N 34°15' E 135°07'0 0.0
2014-Sep-24 20:32N 34°15' E 135°07'0 0.0
2014-Sep-24 19:32N 34°15' E 135°07'0 0.0
2014-Sep-24 18:32N 34°15' E 135°07'0 0.0
2014-Sep-24 17:32N 34°15' E 135°07'0 0.0
2014-Sep-24 16:32N 34°15' E 135°07'0 0.0
2014-Sep-24 15:32N 34°15' E 135°07'0 0.0
2014-Sep-24 14:32N 34°15' E 135°07'0 0.0
2014-Sep-24 13:32N 34°15' E 135°07'0 0.0
2014-Sep-24 12:32N 34°15' E 135°07'0 0.0
2014-Sep-24 11:32N 34°15' E 135°07'0 0.0
2014-Sep-24 10:32N 34°15' E 135°07'0 0.0
2014-Sep-24 09:32N 34°15' E 135°07'0 0.1
2014-Sep-24 08:29N 34°15' E 135°07'0 0.1
2014-Sep-24 07:34N 34°15' E 135°07'7 6.4
2014-Sep-24 06:31N 34°16' E 134°59'1010.2
2014-Sep-24 05:34N 34°25' E 135°04'1211.8
2014-Sep-24 04:34N 34°32' E 135°16'9 8.8
2014-Sep-24 03:32N 34°35' E 135°26'1 1.3
2014-Sep-24 02:33N 34°34' E 135°27'0 0.0
2014-Sep-24 01:32N 34°34' E 135°27'0 0.0
2014-Sep-24 00:32N 34°34' E 135°27'0 0.0
2014-Sep-23 23:33N 34°34' E 135°27'0 0.0
2014-Sep-23 22:33N 34°34' E 135°27'0 0.0
2014-Sep-23 21:32N 34°34' E 135°27'0 0.0
2014-Sep-23 20:31N 34°34' E 135°27'0 0.0
2014-Sep-23 18:06N 34°34' E 135°27'0 0.0
2014-Sep-23 17:32N 34°34' E 135°27'0 0.0
2014-Sep-23 16:33N 34°34' E 135°27'0 0.0
2014-Sep-23 15:33N 34°34' E 135°27'0 0.0
2014-Sep-23 14:33N 34°34' E 135°27'0 0.0
2014-Sep-23 13:33N 34°34' E 135°27'0 0.0
2014-Sep-23 12:32N 34°34' E 135°27'0 0.0
2014-Sep-23 11:34N 34°34' E 135°27'0 0.0
2014-Sep-23 10:33N 34°34' E 135°27'0 0.0
2014-Sep-23 09:33N 34°34' E 135°27'0 0.0
2014-Sep-23 06:33N 34°34' E 135°27'4 3.6
2014-Sep-23 05:33N 34°36' E 135°23'5 5.2
2014-Sep-23 04:33N 34°42' E 135°24'0 0.0
2014-Sep-23 01:30N 34°42' E 135°24'0 0.0
2014-Sep-23 00:30N 34°42' E 135°24'0 0.0
2014-Sep-22 07:24N 34°42' E 135°24'  

Dump ship's entire track history